sensor_id;sensor_type;location;lat;lon;timestamp;temperature;humidity
21047;DHT22;10682;50.874;3.656;2024-01-11T00:01:50;-4.30;99.90
21047;DHT22;10682;50.874;3.656;2024-01-11T00:04:21;-4.30;99.90
21047;DHT22;10682;50.874;3.656;2024-01-11T00:06:50;-4.30;99.90
21047;DHT22;10682;50.874;3.656;2024-01-11T00:09:17;-4.30;99.90
21047;DHT22;10682;50.874;3.656;2024-01-11T00:11:45;-4.40;99.90
21047;DHT22;10682;50.874;3.656;2024-01-11T00:14:15;-4.30;99.90
21047;DHT22;10682;50.874;3.656;2024-01-11T00:16:43;-4.40;99.90
21047;DHT22;10682;50.874;3.656;2024-01-11T00:19:10;-4.40;99.90
21047;DHT22;10682;50.874;3.656;2024-01-11T00:21:40;-4.40;99.90
21047;DHT22;10682;50.874;3.656;2024-01-11T00:24:09;-4.40;99.90
21047;DHT22;10682;50.874;3.656;2024-01-11T00:27:05;-4.40;99.90
21047;DHT22;10682;50.874;3.656;2024-01-11T00:33:32;-4.40;99.90
21047;DHT22;10682;50.874;3.656;2024-01-11T00:36:18;-4.50;99.90
21047;DHT22;10682;50.874;3.656;2024-01-11T00:38:46;-4.60;99.90
21047;DHT22;10682;50.874;3.656;2024-01-11T00:41:15;-4.60;99.90
21047;DHT22;10682;50.874;3.656;2024-01-11T00:43:43;-4.60;99.90
21047;DHT22;10682;50.874;3.656;2024-01-11T00:46:10;-4.60;99.90
21047;DHT22;10682;50.874;3.656;2024-01-11T00:48:40;-4.60;99.90
21047;DHT22;10682;50.874;3.656;2024-01-11T00:51:08;-4.60;99.90
21047;DHT22;10682;50.874;3.656;2024-01-11T00:53:35;-4.60;99.90
21047;DHT22;10682;50.874;3.656;2024-01-11T00:56:03;-4.60;99.90
21047;DHT22;10682;50.874;3.656;2024-01-11T00:58:30;-4.60;99.90
21047;DHT22;10682;50.874;3.656;2024-01-11T01:01:00;-4.50;99.90
21047;DHT22;10682;50.874;3.656;2024-01-11T01:03:28;-4.50;99.90
21047;DHT22;10682;50.874;3.656;2024-01-11T01:05:55;-4.40;99.90
21047;DHT22;10682;50.874;3.656;2024-01-11T01:08:23;-4.40;99.90
21047;DHT22;10682;50.874;3.656;2024-01-11T01:10:50;-4.40;99.90
21047;DHT22;10682;50.874;3.656;2024-01-11T01:13:21;-4.40;99.90
21047;DHT22;10682;50.874;3.656;2024-01-11T01:15:48;-4.40;99.90
21047;DHT22;10682;50.874;3.656;2024-01-11T01:18:15;-4.50;99.90
21047;DHT22;10682;50.874;3.656;2024-01-11T01:20:45;-4.40;99.90
21047;DHT22;10682;50.874;3.656;2024-01-11T01:23:12;-4.40;99.90
21047;DHT22;10682;50.874;3.656;2024-01-11T01:25:41;-4.40;99.90
21047;DHT22;10682;50.874;3.656;2024-01-11T01:28:09;-4.40;99.90
21047;DHT22;10682;50.874;3.656;2024-01-11T01:30:37;-4.40;99.90
21047;DHT22;10682;50.874;3.656;2024-01-11T01:33:06;-4.40;99.90
21047;DHT22;10682;50.874;3.656;2024-01-11T01:35:34;-4.40;99.90
21047;DHT22;10682;50.874;3.656;2024-01-11T01:38:03;-4.40;99.90
21047;DHT22;10682;50.874;3.656;2024-01-11T01:40:30;-4.40;99.90
21047;DHT22;10682;50.874;3.656;2024-01-11T01:42:59;-4.40;99.90
21047;DHT22;10682;50.874;3.656;2024-01-11T01:45:27;-4.30;99.90
21047;DHT22;10682;50.874;3.656;2024-01-11T01:47:55;-4.30;99.90
21047;DHT22;10682;50.874;3.656;2024-01-11T01:50:23;-4.30;99.90
21047;DHT22;10682;50.874;3.656;2024-01-11T01:52:50;-4.30;99.90
21047;DHT22;10682;50.874;3.656;2024-01-11T01:55:19;-4.20;99.90
21047;DHT22;10682;50.874;3.656;2024-01-11T01:57:48;-4.30;99.90
21047;DHT22;10682;50.874;3.656;2024-01-11T02:00:16;-4.30;99.90
21047;DHT22;10682;50.874;3.656;2024-01-11T02:02:44;-4.30;99.90
21047;DHT22;10682;50.874;3.656;2024-01-11T02:05:14;-4.30;99.90
21047;DHT22;10682;50.874;3.656;2024-01-11T02:07:44;-4.30;99.90
21047;DHT22;10682;50.874;3.656;2024-01-11T02:13:23;-4.30;99.90
21047;DHT22;10682;50.874;3.656;2024-01-11T02:15:50;-4.40;99.90
21047;DHT22;10682;50.874;3.656;2024-01-11T02:18:17;-4.40;99.90
21047;DHT22;10682;50.874;3.656;2024-01-11T02:20:45;-4.50;99.90
21047;DHT22;10682;50.874;3.656;2024-01-11T02:23:20;-4.50;99.90
21047;DHT22;10682;50.874;3.656;2024-01-11T02:25:48;-4.60;99.90
21047;DHT22;10682;50.874;3.656;2024-01-11T02:28:16;-4.70;99.90
21047;DHT22;10682;50.874;3.656;2024-01-11T02:30:43;-4.70;99.90
21047;DHT22;10682;50.874;3.656;2024-01-11T02:33:10;-4.80;99.90
21047;DHT22;10682;50.874;3.656;2024-01-11T02:35:38;-4.80;99.90
21047;DHT22;10682;50.874;3.656;2024-01-11T02:38:12;-4.90;99.90
21047;DHT22;10682;50.874;3.656;2024-01-11T02:40:40;-4.90;99.90
21047;DHT22;10682;50.874;3.656;2024-01-11T02:43:11;-4.90;99.90
21047;DHT22;10682;50.874;3.656;2024-01-11T02:45:38;-4.90;99.90
21047;DHT22;10682;50.874;3.656;2024-01-11T02:48:06;-4.90;99.90
21047;DHT22;10682;50.874;3.656;2024-01-11T02:50:33;-4.90;99.90
21047;DHT22;10682;50.874;3.656;2024-01-11T02:53:01;-4.90;99.90
21047;DHT22;10682;50.874;3.656;2024-01-11T02:55:29;-4.90;99.90
21047;DHT22;10682;50.874;3.656;2024-01-11T02:57:56;-5.00;99.90
21047;DHT22;10682;50.874;3.656;2024-01-11T03:00:23;-5.00;99.90
21047;DHT22;10682;50.874;3.656;2024-01-11T03:02:50;-5.10;99.90
21047;DHT22;10682;50.874;3.656;2024-01-11T03:05:17;-5.10;99.90
21047;DHT22;10682;50.874;3.656;2024-01-11T03:07:45;-5.10;99.90
21047;DHT22;10682;50.874;3.656;2024-01-11T03:10:12;-5.10;99.90
21047;DHT22;10682;50.874;3.656;2024-01-11T03:12:39;-5.10;99.90
21047;DHT22;10682;50.874;3.656;2024-01-11T03:15:07;-5.20;99.90
21047;DHT22;10682;50.874;3.656;2024-01-11T03:17:34;-5.20;99.90
21047;DHT22;10682;50.874;3.656;2024-01-11T03:20:02;-5.20;99.90
21047;DHT22;10682;50.874;3.656;2024-01-11T03:22:31;-5.30;99.90
21047;DHT22;10682;50.874;3.656;2024-01-11T03:24:58;-5.30;99.90
21047;DHT22;10682;50.874;3.656;2024-01-11T03:27:26;-5.30;99.90
21047;DHT22;10682;50.874;3.656;2024-01-11T03:29:53;-5.30;99.90
21047;DHT22;10682;50.874;3.656;2024-01-11T03:32:20;-5.30;99.90
21047;DHT22;10682;50.874;3.656;2024-01-11T03:34:47;-5.30;99.90
21047;DHT22;10682;50.874;3.656;2024-01-11T03:37:15;-5.30;99.90
21047;DHT22;10682;50.874;3.656;2024-01-11T03:39:43;-5.30;99.90
21047;DHT22;10682;50.874;3.656;2024-01-11T03:42:10;-5.30;99.90
21047;DHT22;10682;50.874;3.656;2024-01-11T03:44:37;-5.30;99.90
21047;DHT22;10682;50.874;3.656;2024-01-11T03:47:06;-5.30;99.90
21047;DHT22;10682;50.874;3.656;2024-01-11T03:49:33;-5.30;99.90
21047;DHT22;10682;50.874;3.656;2024-01-11T03:52:04;-5.40;99.90
21047;DHT22;10682;50.874;3.656;2024-01-11T03:57:54;-5.40;99.90
21047;DHT22;10682;50.874;3.656;2024-01-11T04:00:27;-5.40;99.90
21047;DHT22;10682;50.874;3.656;2024-01-11T04:02:54;-5.40;99.90
21047;DHT22;10682;50.874;3.656;2024-01-11T04:05:21;-5.40;99.90
21047;DHT22;10682;50.874;3.656;2024-01-11T04:07:48;-5.40;99.90
21047;DHT22;10682;50.874;3.656;2024-01-11T04:10:18;-5.40;99.90
21047;DHT22;10682;50.874;3.656;2024-01-11T04:12:45;-5.30;99.90
21047;DHT22;10682;50.874;3.656;2024-01-11T04:15:14;-5.40;99.90
21047;DHT22;10682;50.874;3.656;2024-01-11T04:17:41;-5.40;99.90
21047;DHT22;10682;50.874;3.656;2024-01-11T04:20:08;-5.30;99.90
21047;DHT22;10682;50.874;3.656;2024-01-11T04:22:37;-5.30;99.90
21047;DHT22;10682;50.874;3.656;2024-01-11T04:25:05;-5.30;99.90
21047;DHT22;10682;50.874;3.656;2024-01-11T04:27:32;-5.30;99.90
21047;DHT22;10682;50.874;3.656;2024-01-11T04:30:00;-5.40;99.90
21047;DHT22;10682;50.874;3.656;2024-01-11T04:32:27;-5.40;99.90
21047;DHT22;10682;50.874;3.656;2024-01-11T04:34:54;-5.40;99.90
21047;DHT22;10682;50.874;3.656;2024-01-11T04:37:21;-5.40;99.90
21047;DHT22;10682;50.874;3.656;2024-01-11T04:39:49;-5.40;99.90
21047;DHT22;10682;50.874;3.656;2024-01-11T04:42:16;-5.40;99.90
21047;DHT22;10682;50.874;3.656;2024-01-11T04:44:43;-5.40;99.90
21047;DHT22;10682;50.874;3.656;2024-01-11T04:47:11;-5.40;99.90
21047;DHT22;10682;50.874;3.656;2024-01-11T04:49:38;-5.40;99.90
21047;DHT22;10682;50.874;3.656;2024-01-11T04:52:06;-5.40;99.90
21047;DHT22;10682;50.874;3.656;2024-01-11T04:54:35;-5.40;99.90
21047;DHT22;10682;50.874;3.656;2024-01-11T04:57:02;-5.40;99.90
21047;DHT22;10682;50.874;3.656;2024-01-11T04:59:30;-5.50;99.90
21047;DHT22;10682;50.874;3.656;2024-01-11T05:01:57;-5.50;99.90
21047;DHT22;10682;50.874;3.656;2024-01-11T05:04:24;-5.50;99.90
21047;DHT22;10682;50.874;3.656;2024-01-11T05:06:52;-5.50;99.90
21047;DHT22;10682;50.874;3.656;2024-01-11T05:09:19;-5.50;99.90
21047;DHT22;10682;50.874;3.656;2024-01-11T05:11:46;-5.60;99.90
21047;DHT22;10682;50.874;3.656;2024-01-11T05:14:15;-5.60;99.90
21047;DHT22;10682;50.874;3.656;2024-01-11T05:16:42;-5.60;99.90
21047;DHT22;10682;50.874;3.656;2024-01-11T05:19:11;-5.60;99.90
21047;DHT22;10682;50.874;3.656;2024-01-11T05:21:38;-5.60;99.90
21047;DHT22;10682;50.874;3.656;2024-01-11T05:24:06;-5.60;99.90
21047;DHT22;10682;50.874;3.656;2024-01-11T05:26:37;-5.60;99.90
21047;DHT22;10682;50.874;3.656;2024-01-11T05:29:04;-5.60;99.90
21047;DHT22;10682;50.874;3.656;2024-01-11T05:31:31;-5.60;99.90
21047;DHT22;10682;50.874;3.656;2024-01-11T05:34:00;-5.60;99.90
21047;DHT22;10682;50.874;3.656;2024-01-11T05:36:32;-5.60;99.90
21047;DHT22;10682;50.874;3.656;2024-01-11T05:42:08;-5.60;99.90
21047;DHT22;10682;50.874;3.656;2024-01-11T05:44:40;-5.50;99.90
21047;DHT22;10682;50.874;3.656;2024-01-11T05:47:08;-5.50;99.90
21047;DHT22;10682;50.874;3.656;2024-01-11T05:49:36;-5.50;99.90
21047;DHT22;10682;50.874;3.656;2024-01-11T05:52:03;-5.40;99.90
21047;DHT22;10682;50.874;3.656;2024-01-11T05:54:31;-5.40;99.90
21047;DHT22;10682;50.874;3.656;2024-01-11T05:56:58;-5.40;99.90
21047;DHT22;10682;50.874;3.656;2024-01-11T05:59:26;-5.40;99.90
21047;DHT22;10682;50.874;3.656;2024-01-11T06:01:53;-5.40;99.90
21047;DHT22;10682;50.874;3.656;2024-01-11T06:04:21;-5.40;99.90
21047;DHT22;10682;50.874;3.656;2024-01-11T06:06:48;-5.30;99.90
21047;DHT22;10682;50.874;3.656;2024-01-11T06:09:16;-5.30;99.90
21047;DHT22;10682;50.874;3.656;2024-01-11T06:11:43;-5.30;99.90
21047;DHT22;10682;50.874;3.656;2024-01-11T06:14:11;-5.30;99.90
21047;DHT22;10682;50.874;3.656;2024-01-11T06:16:38;-5.30;99.90
21047;DHT22;10682;50.874;3.656;2024-01-11T06:19:07;-5.30;99.90
21047;DHT22;10682;50.874;3.656;2024-01-11T06:21:36;-5.20;99.90
21047;DHT22;10682;50.874;3.656;2024-01-11T06:24:03;-5.20;99.90
21047;DHT22;10682;50.874;3.656;2024-01-11T06:26:30;-5.20;99.90
21047;DHT22;10682;50.874;3.656;2024-01-11T06:28:57;-5.20;99.90
21047;DHT22;10682;50.874;3.656;2024-01-11T06:31:25;-5.20;99.90
21047;DHT22;10682;50.874;3.656;2024-01-11T06:33:53;-5.10;99.90
21047;DHT22;10682;50.874;3.656;2024-01-11T06:36:22;-5.10;99.90
21047;DHT22;10682;50.874;3.656;2024-01-11T06:38:49;-5.10;99.90
21047;DHT22;10682;50.874;3.656;2024-01-11T06:41:17;-5.10;99.90
21047;DHT22;10682;50.874;3.656;2024-01-11T06:43:45;-5.10;99.90
21047;DHT22;10682;50.874;3.656;2024-01-11T06:46:12;-5.10;99.90
21047;DHT22;10682;50.874;3.656;2024-01-11T06:48:39;-5.20;99.90
21047;DHT22;10682;50.874;3.656;2024-01-11T06:51:09;-5.20;99.90
21047;DHT22;10682;50.874;3.656;2024-01-11T06:53:36;-5.20;99.90
21047;DHT22;10682;50.874;3.656;2024-01-11T06:56:16;-5.20;99.90
21047;DHT22;10682;50.874;3.656;2024-01-11T06:58:44;-5.20;99.90
21047;DHT22;10682;50.874;3.656;2024-01-11T07:01:13;-5.20;99.90
21047;DHT22;10682;50.874;3.656;2024-01-11T07:03:41;-5.20;99.90
21047;DHT22;10682;50.874;3.656;2024-01-11T07:06:09;-5.30;99.90
21047;DHT22;10682;50.874;3.656;2024-01-11T07:08:37;-5.40;99.90
21047;DHT22;10682;50.874;3.656;2024-01-11T07:11:04;-5.40;99.90
21047;DHT22;10682;50.874;3.656;2024-01-11T07:13:32;-5.50;99.90
21047;DHT22;10682;50.874;3.656;2024-01-11T07:16:00;-5.50;99.90
21047;DHT22;10682;50.874;3.656;2024-01-11T07:18:29;-5.50;99.90
21047;DHT22;10682;50.874;3.656;2024-01-11T07:21:25;-5.50;99.90
21047;DHT22;10682;50.874;3.656;2024-01-11T07:27:42;-5.60;99.90
21047;DHT22;10682;50.874;3.656;2024-01-11T07:30:11;-5.60;99.90
21047;DHT22;10682;50.874;3.656;2024-01-11T07:32:39;-5.60;99.90
21047;DHT22;10682;50.874;3.656;2024-01-11T07:35:07;-5.60;99.90
21047;DHT22;10682;50.874;3.656;2024-01-11T07:37:42;-5.60;99.90
21047;DHT22;10682;50.874;3.656;2024-01-11T07:40:09;-5.60;99.90
21047;DHT22;10682;50.874;3.656;2024-01-11T07:42:38;-5.70;99.90
21047;DHT22;10682;50.874;3.656;2024-01-11T07:45:09;-5.70;99.90
21047;DHT22;10682;50.874;3.656;2024-01-11T07:47:37;-5.70;99.90
21047;DHT22;10682;50.874;3.656;2024-01-11T07:50:05;-5.80;99.90
21047;DHT22;10682;50.874;3.656;2024-01-11T07:52:33;-5.80;99.90
21047;DHT22;10682;50.874;3.656;2024-01-11T07:55:01;-5.80;99.90
21047;DHT22;10682;50.874;3.656;2024-01-11T07:57:34;-5.80;99.90
21047;DHT22;10682;50.874;3.656;2024-01-11T08:00:01;-5.80;99.90
21047;DHT22;10682;50.874;3.656;2024-01-11T08:02:30;-5.60;99.90
21047;DHT22;10682;50.874;3.656;2024-01-11T08:04:57;-5.40;99.90
21047;DHT22;10682;50.874;3.656;2024-01-11T08:07:27;-5.10;99.90
21047;DHT22;10682;50.874;3.656;2024-01-11T08:09:55;-4.50;99.90
21047;DHT22;10682;50.874;3.656;2024-01-11T08:12:22;-4.10;99.90
21047;DHT22;10682;50.874;3.656;2024-01-11T08:14:49;-3.70;99.90
21047;DHT22;10682;50.874;3.656;2024-01-11T08:17:16;-3.30;99.90
21047;DHT22;10682;50.874;3.656;2024-01-11T08:19:43;-2.80;99.90
21047;DHT22;10682;50.874;3.656;2024-01-11T08:22:11;-2.50;99.90
21047;DHT22;10682;50.874;3.656;2024-01-11T08:24:39;-2.10;99.90
21047;DHT22;10682;50.874;3.656;2024-01-11T08:27:06;-1.80;99.90
21047;DHT22;10682;50.874;3.656;2024-01-11T08:29:33;-1.60;99.90
21047;DHT22;10682;50.874;3.656;2024-01-11T08:32:02;-1.20;99.90
21047;DHT22;10682;50.874;3.656;2024-01-11T08:34:49;-0.70;99.90
21047;DHT22;10682;50.874;3.656;2024-01-11T08:37:17;-0.20;99.90
21047;DHT22;10682;50.874;3.656;2024-01-11T08:39:44;0.00;99.90
21047;DHT22;10682;50.874;3.656;2024-01-11T08:42:13;0.30;99.90
21047;DHT22;10682;50.874;3.656;2024-01-11T08:44:42;0.60;99.90
21047;DHT22;10682;50.874;3.656;2024-01-11T08:47:10;0.80;99.90
21047;DHT22;10682;50.874;3.656;2024-01-11T08:49:39;1.00;99.90
21047;DHT22;10682;50.874;3.656;2024-01-11T08:52:07;1.10;99.90
21047;DHT22;10682;50.874;3.656;2024-01-11T08:54:38;1.30;99.90
21047;DHT22;10682;50.874;3.656;2024-01-11T08:57:05;1.40;99.90
21047;DHT22;10682;50.874;3.656;2024-01-11T08:59:33;1.30;99.90
21047;DHT22;10682;50.874;3.656;2024-01-11T09:05:21;1.00;99.90
21047;DHT22;10682;50.874;3.656;2024-01-11T09:08:05;1.00;99.90
21047;DHT22;10682;50.874;3.656;2024-01-11T09:10:34;1.00;99.90
21047;DHT22;10682;50.874;3.656;2024-01-11T09:13:01;1.20;99.90
21047;DHT22;10682;50.874;3.656;2024-01-11T09:15:29;1.10;99.90
21047;DHT22;10682;50.874;3.656;2024-01-11T09:17:56;0.90;99.90
21047;DHT22;10682;50.874;3.656;2024-01-11T09:20:23;0.70;99.90
21047;DHT22;10682;50.874;3.656;2024-01-11T09:22:51;0.60;99.90
21047;DHT22;10682;50.874;3.656;2024-01-11T09:25:19;0.50;99.90
21047;DHT22;10682;50.874;3.656;2024-01-11T09:27:46;0.40;99.90
21047;DHT22;10682;50.874;3.656;2024-01-11T09:30:13;0.60;99.90
21047;DHT22;10682;50.874;3.656;2024-01-11T09:38:29;0.80;99.90
21047;DHT22;10682;50.874;3.656;2024-01-11T09:41:12;0.90;99.90
21047;DHT22;10682;50.874;3.656;2024-01-11T09:43:43;1.00;99.90
21047;DHT22;10682;50.874;3.656;2024-01-11T09:46:12;1.10;99.90
21047;DHT22;10682;50.874;3.656;2024-01-11T09:48:40;1.00;99.90
21047;DHT22;10682;50.874;3.656;2024-01-11T09:51:11;0.80;99.90
21047;DHT22;10682;50.874;3.656;2024-01-11T09:53:39;0.70;99.90
21047;DHT22;10682;50.874;3.656;2024-01-11T09:56:09;0.60;99.90
21047;DHT22;10682;50.874;3.656;2024-01-11T09:58:37;0.50;99.90
21047;DHT22;10682;50.874;3.656;2024-01-11T10:01:11;0.50;99.90
21047;DHT22;10682;50.874;3.656;2024-01-11T10:03:40;0.50;99.90
21047;DHT22;10682;50.874;3.656;2024-01-11T10:06:10;0.30;99.90
21047;DHT22;10682;50.874;3.656;2024-01-11T10:08:38;0.30;99.90
21047;DHT22;10682;50.874;3.656;2024-01-11T10:11:06;0.30;99.90
21047;DHT22;10682;50.874;3.656;2024-01-11T10:13:36;0.30;99.90
21047;DHT22;10682;50.874;3.656;2024-01-11T10:16:10;0.20;99.90
21047;DHT22;10682;50.874;3.656;2024-01-11T10:18:42;0.30;99.90
21047;DHT22;10682;50.874;3.656;2024-01-11T10:21:11;0.30;99.90
21047;DHT22;10682;50.874;3.656;2024-01-11T10:30:04;0.60;99.90
21047;DHT22;10682;50.874;3.656;2024-01-11T10:32:34;0.80;99.90
21047;DHT22;10682;50.874;3.656;2024-01-11T10:35:02;0.90;99.90
21047;DHT22;10682;50.874;3.656;2024-01-11T10:37:32;0.90;99.90
21047;DHT22;10682;50.874;3.656;2024-01-11T10:40:08;1.00;99.90
21047;DHT22;10682;50.874;3.656;2024-01-11T10:42:43;0.90;99.90
21047;DHT22;10682;50.874;3.656;2024-01-11T10:45:21;0.90;99.90
21047;DHT22;10682;50.874;3.656;2024-01-11T10:47:55;1.00;99.90
21047;DHT22;10682;50.874;3.656;2024-01-11T10:50:42;1.00;99.90
21047;DHT22;10682;50.874;3.656;2024-01-11T10:56:03;0.80;99.90
21047;DHT22;10682;50.874;3.656;2024-01-11T10:58:34;0.70;99.90
21047;DHT22;10682;50.874;3.656;2024-01-11T11:01:02;0.50;99.90
21047;DHT22;10682;50.874;3.656;2024-01-11T11:03:34;0.50;99.90
21047;DHT22;10682;50.874;3.656;2024-01-11T11:06:04;0.50;99.90
21047;DHT22;10682;50.874;3.656;2024-01-11T11:08:34;0.50;99.90
21047;DHT22;10682;50.874;3.656;2024-01-11T11:11:04;0.50;99.90
21047;DHT22;10682;50.874;3.656;2024-01-11T11:13:33;0.60;99.90
21047;DHT22;10682;50.874;3.656;2024-01-11T11:16:03;0.70;99.90
21047;DHT22;10682;50.874;3.656;2024-01-11T11:18:32;0.90;99.90
21047;DHT22;10682;50.874;3.656;2024-01-11T11:21:10;1.00;99.90
21047;DHT22;10682;50.874;3.656;2024-01-11T11:23:40;1.10;99.90
21047;DHT22;10682;50.874;3.656;2024-01-11T11:26:14;1.10;99.90
21047;DHT22;10682;50.874;3.656;2024-01-11T11:28:47;1.20;99.90
21047;DHT22;10682;50.874;3.656;2024-01-11T11:31:45;1.30;99.90
21047;DHT22;10682;50.874;3.656;2024-01-11T11:34:14;1.50;99.90
21047;DHT22;10682;50.874;3.656;2024-01-11T11:36:42;1.60;99.90
21047;DHT22;10682;50.874;3.656;2024-01-11T11:39:11;1.80;99.90
21047;DHT22;10682;50.874;3.656;2024-01-11T11:41:38;2.00;99.90
21047;DHT22;10682;50.874;3.656;2024-01-11T11:44:06;2.30;99.90
21047;DHT22;10682;50.874;3.656;2024-01-11T11:46:35;2.60;99.90
21047;DHT22;10682;50.874;3.656;2024-01-11T11:49:02;2.70;99.90
21047;DHT22;10682;50.874;3.656;2024-01-11T11:51:30;3.00;99.90
21047;DHT22;10682;50.874;3.656;2024-01-11T11:53:57;3.10;99.90
21047;DHT22;10682;50.874;3.656;2024-01-11T11:56:24;3.20;99.90
21047;DHT22;10682;50.874;3.656;2024-01-11T11:58:52;3.30;99.90
21047;DHT22;10682;50.874;3.656;2024-01-11T12:01:22;3.50;99.90
21047;DHT22;10682;50.874;3.656;2024-01-11T12:04:13;3.40;99.90
21047;DHT22;10682;50.874;3.656;2024-01-11T12:06:54;3.30;99.90
21047;DHT22;10682;50.874;3.656;2024-01-11T12:09:22;3.50;99.90
21047;DHT22;10682;50.874;3.656;2024-01-11T12:11:50;3.60;99.90
21047;DHT22;10682;50.874;3.656;2024-01-11T12:14:32;3.80;99.90
21047;DHT22;10682;50.874;3.656;2024-01-11T12:17:01;3.90;99.90
21047;DHT22;10682;50.874;3.656;2024-01-11T12:19:28;4.00;99.90
21047;DHT22;10682;50.874;3.656;2024-01-11T12:21:56;4.10;99.90
21047;DHT22;10682;50.874;3.656;2024-01-11T12:24:26;4.40;99.90
21047;DHT22;10682;50.874;3.656;2024-01-11T12:26:53;4.50;99.90
21047;DHT22;10682;50.874;3.656;2024-01-11T12:29:23;4.70;99.90
21047;DHT22;10682;50.874;3.656;2024-01-11T12:31:51;4.80;99.90
21047;DHT22;10682;50.874;3.656;2024-01-11T12:34:19;4.90;99.90
21047;DHT22;10682;50.874;3.656;2024-01-11T12:36:47;5.00;99.90
21047;DHT22;10682;50.874;3.656;2024-01-11T12:39:16;4.90;99.90
21047;DHT22;10682;50.874;3.656;2024-01-11T12:41:43;4.70;99.90
21047;DHT22;10682;50.874;3.656;2024-01-11T12:44:11;4.50;99.90
21047;DHT22;10682;50.874;3.656;2024-01-11T12:46:39;4.50;99.90
21047;DHT22;10682;50.874;3.656;2024-01-11T12:49:10;4.40;99.90
21047;DHT22;10682;50.874;3.656;2024-01-11T12:51:37;4.40;99.90
21047;DHT22;10682;50.874;3.656;2024-01-11T12:54:12;4.50;99.90
21047;DHT22;10682;50.874;3.656;2024-01-11T12:56:41;4.50;99.90
21047;DHT22;10682;50.874;3.656;2024-01-11T12:59:12;4.60;99.90
21047;DHT22;10682;50.874;3.656;2024-01-11T13:01:39;4.70;99.90
21047;DHT22;10682;50.874;3.656;2024-01-11T13:04:09;4.80;99.90
21047;DHT22;10682;50.874;3.656;2024-01-11T13:06:37;4.60;99.90
21047;DHT22;10682;50.874;3.656;2024-01-11T13:09:04;4.50;99.90
21047;DHT22;10682;50.874;3.656;2024-01-11T13:11:34;4.60;99.90
21047;DHT22;10682;50.874;3.656;2024-01-11T13:14:02;4.70;99.90
21047;DHT22;10682;50.874;3.656;2024-01-11T13:16:34;4.90;99.90
21047;DHT22;10682;50.874;3.656;2024-01-11T13:19:01;4.90;99.90
21047;DHT22;10682;50.874;3.656;2024-01-11T13:21:42;4.80;99.90
21047;DHT22;10682;50.874;3.656;2024-01-11T13:24:09;4.70;99.90
21047;DHT22;10682;50.874;3.656;2024-01-11T13:26:36;4.50;99.90
21047;DHT22;10682;50.874;3.656;2024-01-11T13:29:04;4.40;99.90
21047;DHT22;10682;50.874;3.656;2024-01-11T13:31:34;4.30;99.90
21047;DHT22;10682;50.874;3.656;2024-01-11T13:34:02;4.40;99.90
21047;DHT22;10682;50.874;3.656;2024-01-11T13:36:31;4.40;99.90
21047;DHT22;10682;50.874;3.656;2024-01-11T13:38:58;4.50;99.90
21047;DHT22;10682;50.874;3.656;2024-01-11T13:41:27;4.40;99.90
21047;DHT22;10682;50.874;3.656;2024-01-11T13:44:27;4.40;99.90
21047;DHT22;10682;50.874;3.656;2024-01-11T13:46:56;4.40;99.90
21047;DHT22;10682;50.874;3.656;2024-01-11T13:49:23;4.40;99.90
21047;DHT22;10682;50.874;3.656;2024-01-11T13:51:52;4.30;99.90
21047;DHT22;10682;50.874;3.656;2024-01-11T13:54:27;4.10;99.90
21047;DHT22;10682;50.874;3.656;2024-01-11T13:56:54;4.00;99.90
21047;DHT22;10682;50.874;3.656;2024-01-11T13:59:22;4.00;99.90
21047;DHT22;10682;50.874;3.656;2024-01-11T14:01:49;4.00;99.90
21047;DHT22;10682;50.874;3.656;2024-01-11T14:04:16;4.00;99.90
21047;DHT22;10682;50.874;3.656;2024-01-11T14:06:43;3.90;99.90
21047;DHT22;10682;50.874;3.656;2024-01-11T14:09:11;3.90;99.90
21047;DHT22;10682;50.874;3.656;2024-01-11T14:11:39;3.70;99.90
21047;DHT22;10682;50.874;3.656;2024-01-11T14:14:06;3.60;99.90
21047;DHT22;10682;50.874;3.656;2024-01-11T14:16:33;3.60;99.90
21047;DHT22;10682;50.874;3.656;2024-01-11T14:19:00;3.60;99.90
21047;DHT22;10682;50.874;3.656;2024-01-11T14:21:28;3.60;99.90
21047;DHT22;10682;50.874;3.656;2024-01-11T14:23:55;3.60;99.90
21047;DHT22;10682;50.874;3.656;2024-01-11T14:26:22;3.50;99.90
21047;DHT22;10682;50.874;3.656;2024-01-11T14:28:50;3.50;99.90
21047;DHT22;10682;50.874;3.656;2024-01-11T14:31:18;3.40;99.90
21047;DHT22;10682;50.874;3.656;2024-01-11T14:33:45;3.40;99.90
21047;DHT22;10682;50.874;3.656;2024-01-11T14:36:14;3.40;99.90
21047;DHT22;10682;50.874;3.656;2024-01-11T14:38:42;3.40;99.90
21047;DHT22;10682;50.874;3.656;2024-01-11T14:41:10;3.30;99.90
21047;DHT22;10682;50.874;3.656;2024-01-11T14:43:37;3.20;99.90
21047;DHT22;10682;50.874;3.656;2024-01-11T14:46:04;3.10;99.90
21047;DHT22;10682;50.874;3.656;2024-01-11T14:48:32;3.00;99.90
21047;DHT22;10682;50.874;3.656;2024-01-11T14:50:59;2.90;99.90
21047;DHT22;10682;50.874;3.656;2024-01-11T14:53:27;2.80;99.90
21047;DHT22;10682;50.874;3.656;2024-01-11T14:55:54;2.70;99.90
21047;DHT22;10682;50.874;3.656;2024-01-11T14:58:21;2.60;99.90
21047;DHT22;10682;50.874;3.656;2024-01-11T15:00:48;2.60;99.90
21047;DHT22;10682;50.874;3.656;2024-01-11T15:03:16;2.50;99.90
21047;DHT22;10682;50.874;3.656;2024-01-11T15:05:46;2.30;99.90
21047;DHT22;10682;50.874;3.656;2024-01-11T15:08:13;2.30;99.90
21047;DHT22;10682;50.874;3.656;2024-01-11T15:10:40;2.20;99.90
21047;DHT22;10682;50.874;3.656;2024-01-11T15:13:09;2.20;99.90
21047;DHT22;10682;50.874;3.656;2024-01-11T15:15:37;2.20;99.90
21047;DHT22;10682;50.874;3.656;2024-01-11T15:18:07;2.20;99.90
21047;DHT22;10682;50.874;3.656;2024-01-11T15:20:40;2.10;99.90
21047;DHT22;10682;50.874;3.656;2024-01-11T15:23:15;2.00;99.90
21047;DHT22;10682;50.874;3.656;2024-01-11T15:26:04;2.00;99.90
21047;DHT22;10682;50.874;3.656;2024-01-11T15:28:35;2.00;99.90
21047;DHT22;10682;50.874;3.656;2024-01-11T15:31:03;2.00;99.90
21047;DHT22;10682;50.874;3.656;2024-01-11T15:33:31;1.90;99.90
21047;DHT22;10682;50.874;3.656;2024-01-11T15:35:58;1.90;99.90
21047;DHT22;10682;50.874;3.656;2024-01-11T15:38:26;1.90;99.90
21047;DHT22;10682;50.874;3.656;2024-01-11T15:40:53;1.90;99.90
21047;DHT22;10682;50.874;3.656;2024-01-11T15:43:20;1.90;99.90
21047;DHT22;10682;50.874;3.656;2024-01-11T15:45:49;1.80;99.90
21047;DHT22;10682;50.874;3.656;2024-01-11T15:48:16;1.80;99.90
21047;DHT22;10682;50.874;3.656;2024-01-11T15:50:43;1.80;99.90
21047;DHT22;10682;50.874;3.656;2024-01-11T15:53:11;1.70;99.90
21047;DHT22;10682;50.874;3.656;2024-01-11T15:55:38;1.70;99.90
21047;DHT22;10682;50.874;3.656;2024-01-11T15:58:05;1.70;99.90
21047;DHT22;10682;50.874;3.656;2024-01-11T16:00:33;1.70;99.90
21047;DHT22;10682;50.874;3.656;2024-01-11T16:03:00;1.60;99.90
21047;DHT22;10682;50.874;3.656;2024-01-11T16:05:27;1.60;99.90
21047;DHT22;10682;50.874;3.656;2024-01-11T16:07:55;1.70;99.90
21047;DHT22;10682;50.874;3.656;2024-01-11T16:10:22;1.70;99.90
21047;DHT22;10682;50.874;3.656;2024-01-11T16:12:49;1.60;99.90
21047;DHT22;10682;50.874;3.656;2024-01-11T16:15:20;1.60;99.90
21047;DHT22;10682;50.874;3.656;2024-01-11T16:17:47;1.60;99.90
21047;DHT22;10682;50.874;3.656;2024-01-11T16:20:15;1.60;99.90
21047;DHT22;10682;50.874;3.656;2024-01-11T16:22:43;1.60;99.90
21047;DHT22;10682;50.874;3.656;2024-01-11T16:25:10;1.60;99.90